Flight Information

DEPARTURE
SANTA BARBARA, CA
Elevation:
13
Runways:
7/25 - 6052x150 - ASPH-G
15L/33R - 4180x75 - ASPH-G
15R/33L - 4184x100 - ASPH-G
ATIS:
132.65
Clearance Delivery:
132.9
Ground:
121.7
Tower:
119.7
DESTINATION
,
Elevation:
TPA:
1000 (est.)


6853.7 NM72° True-14° Var58° HDG

Flight Plan:
(click to file on line)

1. Type
2. Aircraft Identification
3. Aircraft Type / Special Equipment
4. True Airspeed
kts
5. Departure Airport
(ICAO code)
6. Arriving Airport
(ICAO code)
7. Cruising Altitude
ft
8. Alternate Airport
(ICAO code)
9. Route of Flight
10. Remarks


00:00:00 Departure ATIS: Destination ATIS:

Clearance Limit:
Route:
Altitude: Expect in minutes
Frequency:
Transponder: (7500 Hijack / 7600 Lost Comms / 7700 Emergency)


KSBA 051553Z 14005KT 6SM HZ CLR 21/16 A2994 RMK AO2 SLP137 T02060156 $
Time: 2020-07-05T15:53:00Z
1593966587
Winds: 140 @ 5 kts
Visibility: 6.0 sm
Clouds (AGL): CLR
Temperature: 20.6 C
Dew Point: 15.6 C
Pressure: 29.940945 in Hgbr


Notes:

Data extracted from FAA Digital Chart Supplement. Effective: 0901Z Thursday, May 21, 2020 to 0901Z Thursday, Jul 16, 2020
Current ATIS data is provided courtisy of PilotEdge.